sensor_id;sensor_type;location;lat;lon;timestamp;P1;durP1;ratioP1;P2;durP2;ratioP2
69161;SDS011;56269;51.738;21.652;2022-10-17T00:01:47;38.67;;;19.95;;
69161;SDS011;56269;51.738;21.652;2022-10-17T00:04:14;35.57;;;19.10;;
69161;SDS011;56269;51.738;21.652;2022-10-17T00:06:40;40.78;;;20.23;;
69161;SDS011;56269;51.738;21.652;2022-10-17T00:09:06;45.72;;;20.98;;
69161;SDS011;56269;51.738;21.652;2022-10-17T00:11:34;48.95;;;21.13;;
69161;SDS011;56269;51.738;21.652;2022-10-17T00:14:00;48.85;;;22.48;;
69161;SDS011;56269;51.738;21.652;2022-10-17T00:16:28;47.57;;;22.23;;
69161;SDS011;56269;51.738;21.652;2022-10-17T00:18:57;36.88;;;18.48;;
69161;SDS011;56269;51.738;21.652;2022-10-17T00:21:23;36.30;;;18.15;;
69161;SDS011;56269;51.738;21.652;2022-10-17T00:23:52;36.15;;;17.67;;
69161;SDS011;56269;51.738;21.652;2022-10-17T00:26:18;32.17;;;16.90;;
69161;SDS011;56269;51.738;21.652;2022-10-17T00:28:48;35.33;;;17.97;;
69161;SDS011;56269;51.738;21.652;2022-10-17T00:31:17;29.88;;;15.95;;
69161;SDS011;56269;51.738;21.652;2022-10-17T00:33:45;34.17;;;18.17;;
69161;SDS011;56269;51.738;21.652;2022-10-17T00:36:16;41.10;;;18.77;;
69161;SDS011;56269;51.738;21.652;2022-10-17T00:38:44;43.42;;;20.45;;
69161;SDS011;56269;51.738;21.652;2022-10-17T00:41:12;49.30;;;21.90;;
69161;SDS011;56269;51.738;21.652;2022-10-17T00:46:55;58.85;;;22.88;;
69161;SDS011;56269;51.738;21.652;2022-10-17T00:49:26;51.95;;;22.05;;
69161;SDS011;56269;51.738;21.652;2022-10-17T00:51:56;49.30;;;22.73;;
69161;SDS011;56269;51.738;21.652;2022-10-17T00:54:27;47.87;;;21.47;;
69161;SDS011;56269;51.738;21.652;2022-10-17T00:56:56;44.42;;;20.55;;
69161;SDS011;56269;51.738;21.652;2022-10-17T00:59:22;37.78;;;19.48;;
69161;SDS011;56269;51.738;21.652;2022-10-17T01:01:53;42.25;;;20.70;;
69161;SDS011;56269;51.738;21.652;2022-10-17T01:04:25;37.63;;;19.42;;
69161;SDS011;56269;51.738;21.652;2022-10-17T01:06:51;39.53;;;19.73;;
69161;SDS011;56269;51.738;21.652;2022-10-17T01:09:17;44.90;;;21.33;;
69161;SDS011;56269;51.738;21.652;2022-10-17T01:11:45;44.50;;;21.55;;
69161;SDS011;56269;51.738;21.652;2022-10-17T01:14:26;49.60;;;22.45;;
69161;SDS011;56269;51.738;21.652;2022-10-17T01:17:06;53.30;;;22.95;;
69161;SDS011;56269;51.738;21.652;2022-10-17T01:22:09;59.35;;;24.33;;
69161;SDS011;56269;51.738;21.652;2022-10-17T01:24:46;50.13;;;21.60;;
69161;SDS011;56269;51.738;21.652;2022-10-17T01:27:31;40.45;;;19.70;;
69161;SDS011;56269;51.738;21.652;2022-10-17T01:30:15;41.23;;;20.60;;
69161;SDS011;56269;51.738;21.652;2022-10-17T01:32:57;43.22;;;20.15;;
69161;SDS011;56269;51.738;21.652;2022-10-17T01:35:40;38.50;;;19.75;;
69161;SDS011;56269;51.738;21.652;2022-10-17T01:38:17;42.53;;;20.63;;
69161;SDS011;56269;51.738;21.652;2022-10-17T01:46:29;54.45;;;23.27;;
69161;SDS011;56269;51.738;21.652;2022-10-17T01:49:00;61.67;;;24.45;;
69161;SDS011;56269;51.738;21.652;2022-10-17T01:51:40;59.53;;;24.20;;
69161;SDS011;56269;51.738;21.652;2022-10-17T01:54:32;53.53;;;21.45;;
69161;SDS011;56269;51.738;21.652;2022-10-17T01:57:03;48.50;;;18.93;;
69161;SDS011;56269;51.738;21.652;2022-10-17T01:59:40;39.90;;;18.83;;
69161;SDS011;56269;51.738;21.652;2022-10-17T02:02:07;35.95;;;18.20;;
69161;SDS011;56269;51.738;21.652;2022-10-17T02:04:34;33.55;;;18.02;;
69161;SDS011;56269;51.738;21.652;2022-10-17T02:07:11;35.88;;;18.73;;
69161;SDS011;56269;51.738;21.652;2022-10-17T02:09:38;32.30;;;17.70;;
69161;SDS011;56269;51.738;21.652;2022-10-17T02:17:51;36.95;;;18.80;;
69161;SDS011;56269;51.738;21.652;2022-10-17T02:20:29;40.63;;;20.38;;
69161;SDS011;56269;51.738;21.652;2022-10-17T02:23:06;38.57;;;20.27;;
69161;SDS011;56269;51.738;21.652;2022-10-17T02:33:53;40.50;;;19.70;;
69161;SDS011;56269;51.738;21.652;2022-10-17T02:36:34;33.30;;;17.80;;
69161;SDS011;56269;51.738;21.652;2022-10-17T02:39:05;40.58;;;20.58;;
69161;SDS011;56269;51.738;21.652;2022-10-17T02:41:34;40.72;;;20.42;;
69161;SDS011;56269;51.738;21.652;2022-10-17T02:44:02;44.45;;;21.40;;
69161;SDS011;56269;51.738;21.652;2022-10-17T02:46:31;41.75;;;20.90;;
69161;SDS011;56269;51.738;21.652;2022-10-17T02:52:11;49.55;;;22.08;;
69161;SDS011;56269;51.738;21.652;2022-10-17T02:57:37;52.28;;;23.50;;
69161;SDS011;56269;51.738;21.652;2022-10-17T03:00:11;46.40;;;21.15;;
69161;SDS011;56269;51.738;21.652;2022-10-17T03:05:14;197.48;;;24.83;;
69161;SDS011;56269;51.738;21.652;2022-10-17T03:07:51;605.15;;;35.85;;
69161;SDS011;56269;51.738;21.652;2022-10-17T03:10:18;68.55;;;22.38;;
69161;SDS011;56269;51.738;21.652;2022-10-17T03:12:44;49.92;;;22.52;;
69161;SDS011;56269;51.738;21.652;2022-10-17T03:15:10;51.53;;;21.93;;
69161;SDS011;56269;51.738;21.652;2022-10-17T03:17:37;60.40;;;24.38;;
69161;SDS011;56269;51.738;21.652;2022-10-17T03:20:04;63.15;;;25.35;;
69161;SDS011;56269;51.738;21.652;2022-10-17T03:22:31;65.57;;;25.83;;
69161;SDS011;56269;51.738;21.652;2022-10-17T03:24:57;65.07;;;24.05;;
69161;SDS011;56269;51.738;21.652;2022-10-17T03:27:23;63.27;;;25.27;;
69161;SDS011;56269;51.738;21.652;2022-10-17T03:29:50;60.10;;;23.92;;
69161;SDS011;56269;51.738;21.652;2022-10-17T03:32:16;62.70;;;24.40;;
69161;SDS011;56269;51.738;21.652;2022-10-17T03:34:42;66.60;;;25.73;;
69161;SDS011;56269;51.738;21.652;2022-10-17T03:37:08;63.43;;;26.10;;
69161;SDS011;56269;51.738;21.652;2022-10-17T03:39:34;108.38;;;34.63;;
69161;SDS011;56269;51.738;21.652;2022-10-17T03:42:00;71.10;;;30.15;;
69161;SDS011;56269;51.738;21.652;2022-10-17T03:44:26;53.15;;;22.33;;
69161;SDS011;56269;51.738;21.652;2022-10-17T03:46:52;40.57;;;20.07;;
69161;SDS011;56269;51.738;21.652;2022-10-17T03:49:18;39.08;;;18.75;;
69161;SDS011;56269;51.738;21.652;2022-10-17T03:51:44;36.28;;;18.92;;
69161;SDS011;56269;51.738;21.652;2022-10-17T03:54:10;38.60;;;18.38;;
69161;SDS011;56269;51.738;21.652;2022-10-17T03:56:36;39.35;;;18.23;;
69161;SDS011;56269;51.738;21.652;2022-10-17T03:59:03;36.47;;;18.33;;
69161;SDS011;56269;51.738;21.652;2022-10-17T04:01:28;495.23;;;27.58;;
69161;SDS011;56269;51.738;21.652;2022-10-17T04:03:55;456.73;;;29.52;;
69161;SDS011;56269;51.738;21.652;2022-10-17T04:06:22;286.40;;;25.45;;
69161;SDS011;56269;51.738;21.652;2022-10-17T04:08:48;57.03;;;22.57;;
69161;SDS011;56269;51.738;21.652;2022-10-17T04:11:16;74.03;;;24.75;;
69161;SDS011;56269;51.738;21.652;2022-10-17T04:13:44;94.38;;;26.83;;
69161;SDS011;56269;51.738;21.652;2022-10-17T04:16:11;73.90;;;25.00;;
69161;SDS011;56269;51.738;21.652;2022-10-17T04:18:39;159.43;;;26.42;;
69161;SDS011;56269;51.738;21.652;2022-10-17T04:21:07;75.77;;;27.60;;
69161;SDS011;56269;51.738;21.652;2022-10-17T04:23:33;130.38;;;31.67;;
69161;SDS011;56269;51.738;21.652;2022-10-17T04:26:00;174.48;;;33.50;;
69161;SDS011;56269;51.738;21.652;2022-10-17T04:28:28;128.43;;;32.25;;
69161;SDS011;56269;51.738;21.652;2022-10-17T04:31:05;81.18;;;28.20;;
69161;SDS011;56269;51.738;21.652;2022-10-17T04:33:34;65.17;;;26.17;;
69161;SDS011;56269;51.738;21.652;2022-10-17T04:36:00;64.95;;;25.42;;
69161;SDS011;56269;51.738;21.652;2022-10-17T04:38:31;70.53;;;26.13;;
69161;SDS011;56269;51.738;21.652;2022-10-17T04:41:02;72.68;;;26.67;;
69161;SDS011;56269;51.738;21.652;2022-10-17T04:43:34;116.78;;;27.75;;
69161;SDS011;56269;51.738;21.652;2022-10-17T04:46:02;57.90;;;24.30;;
69161;SDS011;56269;51.738;21.652;2022-10-17T04:48:30;67.47;;;25.27;;
69161;SDS011;56269;51.738;21.652;2022-10-17T04:50:58;66.63;;;26.10;;
69161;SDS011;56269;51.738;21.652;2022-10-17T04:53:26;57.13;;;24.60;;
69161;SDS011;56269;51.738;21.652;2022-10-17T04:55:53;59.83;;;24.83;;
69161;SDS011;56269;51.738;21.652;2022-10-17T04:58:19;57.90;;;24.20;;
69161;SDS011;56269;51.738;21.652;2022-10-17T05:00:45;66.78;;;25.65;;
69161;SDS011;56269;51.738;21.652;2022-10-17T05:03:11;76.30;;;27.15;;
69161;SDS011;56269;51.738;21.652;2022-10-17T05:05:38;81.55;;;27.63;;
69161;SDS011;56269;51.738;21.652;2022-10-17T05:08:06;74.93;;;26.42;;
69161;SDS011;56269;51.738;21.652;2022-10-17T05:10:36;79.40;;;26.70;;
69161;SDS011;56269;51.738;21.652;2022-10-17T05:13:03;69.47;;;26.92;;
69161;SDS011;56269;51.738;21.652;2022-10-17T05:15:30;74.13;;;27.38;;
69161;SDS011;56269;51.738;21.652;2022-10-17T05:17:57;83.80;;;28.02;;
69161;SDS011;56269;51.738;21.652;2022-10-17T05:20:23;76.10;;;28.13;;
69161;SDS011;56269;51.738;21.652;2022-10-17T05:22:50;72.30;;;26.83;;
69161;SDS011;56269;51.738;21.652;2022-10-17T05:25:16;72.72;;;26.40;;
69161;SDS011;56269;51.738;21.652;2022-10-17T05:27:42;74.00;;;25.90;;
69161;SDS011;56269;51.738;21.652;2022-10-17T05:30:08;64.28;;;26.42;;
69161;SDS011;56269;51.738;21.652;2022-10-17T05:32:35;76.60;;;28.08;;
69161;SDS011;56269;51.738;21.652;2022-10-17T05:35:01;68.97;;;26.90;;
69161;SDS011;56269;51.738;21.652;2022-10-17T05:37:29;68.43;;;26.77;;
69161;SDS011;56269;51.738;21.652;2022-10-17T05:39:56;68.13;;;27.60;;
69161;SDS011;56269;51.738;21.652;2022-10-17T05:42:22;71.22;;;26.92;;
69161;SDS011;56269;51.738;21.652;2022-10-17T05:44:48;79.57;;;30.95;;
69161;SDS011;56269;51.738;21.652;2022-10-17T05:47:15;59.00;;;25.73;;
69161;SDS011;56269;51.738;21.652;2022-10-17T05:49:41;62.97;;;26.30;;
69161;SDS011;56269;51.738;21.652;2022-10-17T05:52:07;60.05;;;25.25;;
69161;SDS011;56269;51.738;21.652;2022-10-17T05:54:33;55.95;;;24.15;;
69161;SDS011;56269;51.738;21.652;2022-10-17T05:56:59;55.97;;;24.43;;
69161;SDS011;56269;51.738;21.652;2022-10-17T05:59:25;56.28;;;24.42;;
69161;SDS011;56269;51.738;21.652;2022-10-17T06:01:51;60.25;;;25.88;;
69161;SDS011;56269;51.738;21.652;2022-10-17T06:04:18;62.72;;;25.63;;
69161;SDS011;56269;51.738;21.652;2022-10-17T06:06:44;63.28;;;26.55;;
69161;SDS011;56269;51.738;21.652;2022-10-17T06:09:10;57.17;;;24.40;;
69161;SDS011;56269;51.738;21.652;2022-10-17T06:11:36;51.33;;;24.08;;
69161;SDS011;56269;51.738;21.652;2022-10-17T06:14:03;46.92;;;23.25;;
69161;SDS011;56269;51.738;21.652;2022-10-17T06:16:31;44.58;;;21.55;;
69161;SDS011;56269;51.738;21.652;2022-10-17T06:18:57;43.28;;;21.55;;
69161;SDS011;56269;51.738;21.652;2022-10-17T06:21:24;49.00;;;21.50;;
69161;SDS011;56269;51.738;21.652;2022-10-17T06:23:51;40.63;;;21.50;;
69161;SDS011;56269;51.738;21.652;2022-10-17T06:26:17;41.38;;;20.33;;
69161;SDS011;56269;51.738;21.652;2022-10-17T06:28:44;45.08;;;20.63;;
69161;SDS011;56269;51.738;21.652;2022-10-17T06:31:12;42.08;;;21.20;;
69161;SDS011;56269;51.738;21.652;2022-10-17T06:33:39;40.17;;;20.00;;
69161;SDS011;56269;51.738;21.652;2022-10-17T06:36:06;34.53;;;19.02;;
69161;SDS011;56269;51.738;21.652;2022-10-17T06:38:34;35.90;;;17.55;;
69161;SDS011;56269;51.738;21.652;2022-10-17T06:41:02;31.08;;;17.25;;
69161;SDS011;56269;51.738;21.652;2022-10-17T06:43:39;32.38;;;17.77;;
69161;SDS011;56269;51.738;21.652;2022-10-17T06:46:11;29.80;;;16.90;;
69161;SDS011;56269;51.738;21.652;2022-10-17T06:48:38;32.05;;;16.63;;
69161;SDS011;56269;51.738;21.652;2022-10-17T06:51:05;29.38;;;16.88;;
69161;SDS011;56269;51.738;21.652;2022-10-17T06:53:34;29.38;;;15.48;;
69161;SDS011;56269;51.738;21.652;2022-10-17T06:56:00;29.02;;;16.35;;
69161;SDS011;56269;51.738;21.652;2022-10-17T06:58:29;27.03;;;16.27;;
69161;SDS011;56269;51.738;21.652;2022-10-17T07:01:08;27.90;;;15.52;;
69161;SDS011;56269;51.738;21.652;2022-10-17T07:03:37;28.58;;;15.10;;
69161;SDS011;56269;51.738;21.652;2022-10-17T07:06:05;26.65;;;15.52;;
69161;SDS011;56269;51.738;21.652;2022-10-17T07:08:31;26.58;;;15.50;;
69161;SDS011;56269;51.738;21.652;2022-10-17T07:10:57;25.83;;;14.30;;
69161;SDS011;56269;51.738;21.652;2022-10-17T07:13:23;25.45;;;15.13;;
69161;SDS011;56269;51.738;21.652;2022-10-17T07:15:50;27.48;;;14.60;;
69161;SDS011;56269;51.738;21.652;2022-10-17T07:18:16;24.85;;;13.95;;
69161;SDS011;56269;51.738;21.652;2022-10-17T07:20:42;26.10;;;14.25;;
69161;SDS011;56269;51.738;21.652;2022-10-17T07:23:08;25.73;;;14.30;;
69161;SDS011;56269;51.738;21.652;2022-10-17T07:25:35;24.30;;;13.90;;
69161;SDS011;56269;51.738;21.652;2022-10-17T07:28:01;26.50;;;13.98;;
69161;SDS011;56269;51.738;21.652;2022-10-17T07:30:28;26.55;;;14.52;;
69161;SDS011;56269;51.738;21.652;2022-10-17T07:32:54;25.07;;;14.10;;
69161;SDS011;56269;51.738;21.652;2022-10-17T07:35:20;23.30;;;13.13;;
69161;SDS011;56269;51.738;21.652;2022-10-17T07:37:46;24.83;;;13.55;;
69161;SDS011;56269;51.738;21.652;2022-10-17T07:40:12;23.40;;;13.40;;
69161;SDS011;56269;51.738;21.652;2022-10-17T07:42:39;24.50;;;13.00;;
69161;SDS011;56269;51.738;21.652;2022-10-17T07:45:05;26.27;;;14.50;;
69161;SDS011;56269;51.738;21.652;2022-10-17T07:47:31;24.02;;;12.05;;
69161;SDS011;56269;51.738;21.652;2022-10-17T07:50:01;26.38;;;13.30;;
69161;SDS011;56269;51.738;21.652;2022-10-17T07:52:27;25.88;;;12.90;;
69161;SDS011;56269;51.738;21.652;2022-10-17T07:54:53;24.90;;;13.30;;
69161;SDS011;56269;51.738;21.652;2022-10-17T07:57:19;23.70;;;13.10;;
69161;SDS011;56269;51.738;21.652;2022-10-17T07:59:45;21.80;;;12.70;;
69161;SDS011;56269;51.738;21.652;2022-10-17T08:02:22;23.33;;;13.05;;
69161;SDS011;56269;51.738;21.652;2022-10-17T08:04:50;24.08;;;13.60;;
69161;SDS011;56269;51.738;21.652;2022-10-17T08:07:16;21.42;;;13.27;;
69161;SDS011;56269;51.738;21.652;2022-10-17T08:09:44;21.27;;;12.77;;
69161;SDS011;56269;51.738;21.652;2022-10-17T08:12:11;23.73;;;12.48;;
69161;SDS011;56269;51.738;21.652;2022-10-17T08:14:39;19.55;;;11.77;;
69161;SDS011;56269;51.738;21.652;2022-10-17T08:17:06;22.00;;;12.73;;
69161;SDS011;56269;51.738;21.652;2022-10-17T08:19:32;23.52;;;12.63;;
69161;SDS011;56269;51.738;21.652;2022-10-17T08:21:58;21.97;;;13.17;;
69161;SDS011;56269;51.738;21.652;2022-10-17T08:24:26;18.77;;;12.13;;
69161;SDS011;56269;51.738;21.652;2022-10-17T08:26:52;22.50;;;12.18;;
69161;SDS011;56269;51.738;21.652;2022-10-17T08:29:18;20.05;;;12.25;;
69161;SDS011;56269;51.738;21.652;2022-10-17T08:31:44;22.57;;;13.17;;
69161;SDS011;56269;51.738;21.652;2022-10-17T08:34:11;21.48;;;12.65;;
69161;SDS011;56269;51.738;21.652;2022-10-17T08:36:36;22.10;;;12.65;;
69161;SDS011;56269;51.738;21.652;2022-10-17T08:39:03;20.60;;;12.65;;
69161;SDS011;56269;51.738;21.652;2022-10-17T08:41:44;19.92;;;12.60;;
69161;SDS011;56269;51.738;21.652;2022-10-17T08:44:34;21.83;;;12.43;;
69161;SDS011;56269;51.738;21.652;2022-10-17T08:47:13;19.48;;;12.65;;
69161;SDS011;56269;51.738;21.652;2022-10-17T08:49:46;22.13;;;12.20;;
69161;SDS011;56269;51.738;21.652;2022-10-17T08:52:20;23.40;;;12.70;;
69161;SDS011;56269;51.738;21.652;2022-10-17T08:54:57;19.58;;;12.07;;
69161;SDS011;56269;51.738;21.652;2022-10-17T08:57:24;22.87;;;12.33;;
69161;SDS011;56269;51.738;21.652;2022-10-17T08:59:51;19.83;;;12.95;;
69161;SDS011;56269;51.738;21.652;2022-10-17T09:13:56;23.13;;;12.85;;
69161;SDS011;56269;51.738;21.652;2022-10-17T09:19:02;21.02;;;12.32;;
69161;SDS011;56269;51.738;21.652;2022-10-17T09:24:05;20.40;;;12.23;;
69161;SDS011;56269;51.738;21.652;2022-10-17T09:26:37;23.60;;;12.32;;
69161;SDS011;56269;51.738;21.652;2022-10-17T09:29:16;18.92;;;11.68;;
69161;SDS011;56269;51.738;21.652;2022-10-17T09:31:48;20.17;;;12.60;;
69161;SDS011;56269;51.738;21.652;2022-10-17T09:34:21;20.58;;;12.48;;
69161;SDS011;56269;51.738;21.652;2022-10-17T09:36:50;19.47;;;11.20;;
69161;SDS011;56269;51.738;21.652;2022-10-17T09:39:18;20.55;;;11.98;;
69161;SDS011;56269;51.738;21.652;2022-10-17T09:47:37;22.25;;;12.48;;
69161;SDS011;56269;51.738;21.652;2022-10-17T09:50:26;19.27;;;11.63;;
69161;SDS011;56269;51.738;21.652;2022-10-17T09:52:54;19.67;;;12.15;;
69161;SDS011;56269;51.738;21.652;2022-10-17T09:58:06;18.95;;;11.38;;
69161;SDS011;56269;51.738;21.652;2022-10-17T10:00:34;19.20;;;11.48;;
69161;SDS011;56269;51.738;21.652;2022-10-17T10:05:40;18.45;;;11.98;;
69161;SDS011;56269;51.738;21.652;2022-10-17T10:08:14;19.00;;;11.65;;
69161;SDS011;56269;51.738;21.652;2022-10-17T10:10:42;18.25;;;11.55;;
69161;SDS011;56269;51.738;21.652;2022-10-17T10:15:38;16.97;;;10.63;;
69161;SDS011;56269;51.738;21.652;2022-10-17T10:21:03;33.38;;;18.20;;
69161;SDS011;56269;51.738;21.652;2022-10-17T10:23:41;21.17;;;11.90;;
69161;SDS011;56269;51.738;21.652;2022-10-17T10:26:17;21.20;;;11.43;;
69161;SDS011;56269;51.738;21.652;2022-10-17T10:28:51;20.23;;;11.53;;
69161;SDS011;56269;51.738;21.652;2022-10-17T10:34:21;17.88;;;10.50;;
69161;SDS011;56269;51.738;21.652;2022-10-17T10:37:00;19.73;;;11.90;;
69161;SDS011;56269;51.738;21.652;2022-10-17T10:39:50;20.33;;;11.48;;
69161;SDS011;56269;51.738;21.652;2022-10-17T10:42:25;19.33;;;11.43;;
69161;SDS011;56269;51.738;21.652;2022-10-17T10:45:14;17.90;;;11.07;;
69161;SDS011;56269;51.738;21.652;2022-10-17T10:56:04;18.63;;;10.90;;
69161;SDS011;56269;51.738;21.652;2022-10-17T10:58:54;17.27;;;10.43;;
69161;SDS011;56269;51.738;21.652;2022-10-17T11:04:21;20.35;;;12.50;;
69161;SDS011;56269;51.738;21.652;2022-10-17T11:07:09;17.40;;;11.00;;
69161;SDS011;56269;51.738;21.652;2022-10-17T11:09:48;20.40;;;11.60;;
69161;SDS011;56269;51.738;21.652;2022-10-17T11:12:23;70.43;;;37.35;;
69161;SDS011;56269;51.738;21.652;2022-10-17T11:17:42;17.15;;;10.85;;
69161;SDS011;56269;51.738;21.652;2022-10-17T11:22:53;21.53;;;12.17;;
69161;SDS011;56269;51.738;21.652;2022-10-17T11:27:55;19.85;;;10.50;;
69161;SDS011;56269;51.738;21.652;2022-10-17T11:30:22;18.55;;;10.45;;
69161;SDS011;56269;51.738;21.652;2022-10-17T11:32:52;19.35;;;10.90;;
69161;SDS011;56269;51.738;21.652;2022-10-17T11:35:29;19.33;;;10.63;;
69161;SDS011;56269;51.738;21.652;2022-10-17T11:40:39;19.55;;;10.73;;
69161;SDS011;56269;51.738;21.652;2022-10-17T11:43:13;19.10;;;10.80;;
69161;SDS011;56269;51.738;21.652;2022-10-17T11:45:45;15.98;;;9.35;;
69161;SDS011;56269;51.738;21.652;2022-10-17T11:48:22;17.27;;;10.30;;
69161;SDS011;56269;51.738;21.652;2022-10-17T11:50:59;17.02;;;10.10;;
69161;SDS011;56269;51.738;21.652;2022-10-17T11:53:33;19.30;;;10.65;;
69161;SDS011;56269;51.738;21.652;2022-10-17T11:56:18;17.85;;;11.18;;
69161;SDS011;56269;51.738;21.652;2022-10-17T11:59:01;16.00;;;10.38;;
69161;SDS011;56269;51.738;21.652;2022-10-17T12:01:37;16.10;;;10.33;;
69161;SDS011;56269;51.738;21.652;2022-10-17T12:04:16;18.23;;;10.70;;
69161;SDS011;56269;51.738;21.652;2022-10-17T12:10:05;17.05;;;10.27;;
69161;SDS011;56269;51.738;21.652;2022-10-17T12:12:43;16.98;;;10.43;;
69161;SDS011;56269;51.738;21.652;2022-10-17T12:17:42;16.23;;;10.90;;
69161;SDS011;56269;51.738;21.652;2022-10-17T12:22:48;16.27;;;9.93;;
69161;SDS011;56269;51.738;21.652;2022-10-17T12:25:17;14.88;;;9.40;;
69161;SDS011;56269;51.738;21.652;2022-10-17T12:27:46;14.20;;;9.27;;
69161;SDS011;56269;51.738;21.652;2022-10-17T12:30:32;14.60;;;9.68;;
69161;SDS011;56269;51.738;21.652;2022-10-17T12:33:01;17.85;;;10.10;;
69161;SDS011;56269;51.738;21.652;2022-10-17T12:35:31;16.23;;;9.98;;
69161;SDS011;56269;51.738;21.652;2022-10-17T12:38:20;18.60;;;8.95;;
69161;SDS011;56269;51.738;21.652;2022-10-17T12:40:47;15.77;;;9.33;;
69161;SDS011;56269;51.738;21.652;2022-10-17T12:45:53;17.88;;;10.25;;
69161;SDS011;56269;51.738;21.652;2022-10-17T12:50:59;14.57;;;10.18;;
69161;SDS011;56269;51.738;21.652;2022-10-17T12:56:40;13.70;;;9.05;;
69161;SDS011;56269;51.738;21.652;2022-10-17T12:59:12;15.75;;;9.20;;
69161;SDS011;56269;51.738;21.652;2022-10-17T13:01:46;12.75;;;8.52;;
69161;SDS011;56269;51.738;21.652;2022-10-17T13:04:15;14.43;;;8.60;;
69161;SDS011;56269;51.738;21.652;2022-10-17T13:06:44;15.20;;;9.57;;
69161;SDS011;56269;51.738;21.652;2022-10-17T13:11:50;13.43;;;9.23;;
69161;SDS011;56269;51.738;21.652;2022-10-17T13:14:18;13.15;;;8.50;;
69161;SDS011;56269;51.738;21.652;2022-10-17T13:16:53;14.00;;;8.50;;
69161;SDS011;56269;51.738;21.652;2022-10-17T13:19:30;15.50;;;8.83;;
69161;SDS011;56269;51.738;21.652;2022-10-17T13:22:10;15.90;;;8.50;;
69161;SDS011;56269;51.738;21.652;2022-10-17T13:24:41;15.48;;;8.38;;
69161;SDS011;56269;51.738;21.652;2022-10-17T13:30:23;14.13;;;8.70;;
69161;SDS011;56269;51.738;21.652;2022-10-17T13:32:49;13.70;;;8.40;;
69161;SDS011;56269;51.738;21.652;2022-10-17T13:35:21;14.55;;;8.50;;
69161;SDS011;56269;51.738;21.652;2022-10-17T13:37:49;13.55;;;7.75;;
69161;SDS011;56269;51.738;21.652;2022-10-17T13:40:17;15.15;;;8.23;;
69161;SDS011;56269;51.738;21.652;2022-10-17T13:42:49;13.77;;;8.27;;
69161;SDS011;56269;51.738;21.652;2022-10-17T13:45:26;14.32;;;8.40;;
69161;SDS011;56269;51.738;21.652;2022-10-17T13:47:55;14.30;;;8.20;;
69161;SDS011;56269;51.738;21.652;2022-10-17T13:50:25;13.88;;;8.57;;
69161;SDS011;56269;51.738;21.652;2022-10-17T13:53:14;13.73;;;8.45;;
69161;SDS011;56269;51.738;21.652;2022-10-17T13:55:52;12.87;;;8.40;;
69161;SDS011;56269;51.738;21.652;2022-10-17T13:58:43;13.88;;;8.02;;
69161;SDS011;56269;51.738;21.652;2022-10-17T14:01:11;13.45;;;8.25;;
69161;SDS011;56269;51.738;21.652;2022-10-17T14:03:40;13.48;;;8.43;;
69161;SDS011;56269;51.738;21.652;2022-10-17T14:06:14;15.02;;;8.32;;
69161;SDS011;56269;51.738;21.652;2022-10-17T14:11:39;19.10;;;10.57;;
69161;SDS011;56269;51.738;21.652;2022-10-17T14:14:14;22.33;;;12.35;;
69161;SDS011;56269;51.738;21.652;2022-10-17T14:16:43;29.05;;;16.02;;
69161;SDS011;56269;51.738;21.652;2022-10-17T14:19:26;45.22;;;23.17;;
69161;SDS011;56269;51.738;21.652;2022-10-17T14:22:13;17.43;;;9.53;;
69161;SDS011;56269;51.738;21.652;2022-10-17T14:24:48;17.23;;;10.13;;
69161;SDS011;56269;51.738;21.652;2022-10-17T14:27:35;15.10;;;8.55;;
69161;SDS011;56269;51.738;21.652;2022-10-17T14:32:54;14.85;;;8.00;;
69161;SDS011;56269;51.738;21.652;2022-10-17T14:35:23;13.10;;;8.10;;
69161;SDS011;56269;51.738;21.652;2022-10-17T14:37:56;14.02;;;8.20;;
69161;SDS011;56269;51.738;21.652;2022-10-17T14:40:25;13.93;;;8.27;;
69161;SDS011;56269;51.738;21.652;2022-10-17T14:42:54;14.52;;;8.75;;
69161;SDS011;56269;51.738;21.652;2022-10-17T14:45:40;14.90;;;8.52;;
69161;SDS011;56269;51.738;21.652;2022-10-17T14:48:10;15.07;;;8.90;;
69161;SDS011;56269;51.738;21.652;2022-10-17T14:50:39;16.90;;;8.93;;
69161;SDS011;56269;51.738;21.652;2022-10-17T14:55:37;14.80;;;9.23;;
69161;SDS011;56269;51.738;21.652;2022-10-17T14:58:15;20.27;;;9.80;;
69161;SDS011;56269;51.738;21.652;2022-10-17T15:00:42;15.30;;;8.97;;
69161;SDS011;56269;51.738;21.652;2022-10-17T15:03:08;16.48;;;9.40;;
69161;SDS011;56269;51.738;21.652;2022-10-17T15:05:34;16.42;;;9.07;;
69161;SDS011;56269;51.738;21.652;2022-10-17T15:08:00;17.98;;;9.65;;
69161;SDS011;56269;51.738;21.652;2022-10-17T15:10:30;17.52;;;8.95;;
69161;SDS011;56269;51.738;21.652;2022-10-17T15:13:00;15.70;;;9.03;;
69161;SDS011;56269;51.738;21.652;2022-10-17T15:15:28;16.92;;;9.52;;
69161;SDS011;56269;51.738;21.652;2022-10-17T15:17:55;14.07;;;8.85;;
69161;SDS011;56269;51.738;21.652;2022-10-17T15:20:21;14.75;;;8.88;;
69161;SDS011;56269;51.738;21.652;2022-10-17T15:22:52;17.40;;;9.45;;
69161;SDS011;56269;51.738;21.652;2022-10-17T15:25:22;16.20;;;9.60;;
69161;SDS011;56269;51.738;21.652;2022-10-17T15:27:49;15.98;;;9.80;;
69161;SDS011;56269;51.738;21.652;2022-10-17T15:30:22;17.05;;;9.82;;
69161;SDS011;56269;51.738;21.652;2022-10-17T15:32:53;18.60;;;10.18;;
69161;SDS011;56269;51.738;21.652;2022-10-17T15:35:20;16.17;;;9.82;;
69161;SDS011;56269;51.738;21.652;2022-10-17T15:37:47;18.50;;;10.17;;
69161;SDS011;56269;51.738;21.652;2022-10-17T15:40:20;20.58;;;9.30;;
69161;SDS011;56269;51.738;21.652;2022-10-17T15:42:49;16.50;;;9.10;;
69161;SDS011;56269;51.738;21.652;2022-10-17T15:45:17;16.02;;;9.45;;
69161;SDS011;56269;51.738;21.652;2022-10-17T15:47:54;18.52;;;10.55;;
69161;SDS011;56269;51.738;21.652;2022-10-17T15:50:23;17.97;;;10.70;;
69161;SDS011;56269;51.738;21.652;2022-10-17T15:52:49;17.30;;;10.10;;
69161;SDS011;56269;51.738;21.652;2022-10-17T15:55:16;19.55;;;10.30;;
69161;SDS011;56269;51.738;21.652;2022-10-17T15:57:44;18.77;;;10.02;;
69161;SDS011;56269;51.738;21.652;2022-10-17T16:00:16;19.67;;;10.30;;
69161;SDS011;56269;51.738;21.652;2022-10-17T16:02:47;18.87;;;9.83;;
69161;SDS011;56269;51.738;21.652;2022-10-17T16:05:18;18.20;;;10.20;;
69161;SDS011;56269;51.738;21.652;2022-10-17T16:07:48;18.42;;;10.50;;
69161;SDS011;56269;51.738;21.652;2022-10-17T16:10:14;20.55;;;10.88;;
69161;SDS011;56269;51.738;21.652;2022-10-17T16:12:41;21.55;;;10.60;;
69161;SDS011;56269;51.738;21.652;2022-10-17T16:15:15;20.37;;;10.20;;
69161;SDS011;56269;51.738;21.652;2022-10-17T16:17:43;19.85;;;10.15;;
69161;SDS011;56269;51.738;21.652;2022-10-17T16:20:10;19.80;;;10.10;;
69161;SDS011;56269;51.738;21.652;2022-10-17T16:22:37;21.77;;;10.93;;
69161;SDS011;56269;51.738;21.652;2022-10-17T16:25:06;21.17;;;11.38;;
69161;SDS011;56269;51.738;21.652;2022-10-17T16:27:44;29.70;;;12.03;;
69161;SDS011;56269;51.738;21.652;2022-10-17T16:30:12;41.42;;;15.00;;
69161;SDS011;56269;51.738;21.652;2022-10-17T16:32:39;23.65;;;11.38;;